createdAt,value
2018-07-21T00:00:28.398Z,8.27
2018-07-21T00:02:56.804Z,8.00
2018-07-21T00:05:25.171Z,8.03
2018-07-21T00:07:53.577Z,8.10
2018-07-21T00:10:22.000Z,8.07
2018-07-21T00:12:50.346Z,7.80
2018-07-21T00:15:18.760Z,8.17
2018-07-21T00:17:47.170Z,8.10
2018-07-21T00:20:15.549Z,7.73
2018-07-21T00:22:43.988Z,8.23
2018-07-21T00:25:12.418Z,7.93
2018-07-21T00:27:40.876Z,7.60
2018-07-21T00:30:09.289Z,8.53
2018-07-21T00:32:37.685Z,7.70
2018-07-21T00:35:06.050Z,7.93
2018-07-21T00:37:34.594Z,7.43
2018-07-21T00:40:03.049Z,8.40
2018-07-21T00:42:31.406Z,7.57
2018-07-21T00:44:59.773Z,7.83
2018-07-21T00:47:28.229Z,7.83
2018-07-21T00:49:56.614Z,7.50
2018-07-21T00:52:24.999Z,7.80
2018-07-21T00:54:53.380Z,8.10
2018-07-21T00:57:21.773Z,8.17
2018-07-21T00:59:50.253Z,7.70
2018-07-21T01:02:18.686Z,8.23
2018-07-21T01:04:47.225Z,7.90
2018-07-21T01:07:15.594Z,8.10
2018-07-21T01:09:43.934Z,8.00
2018-07-21T01:12:12.363Z,8.33
2018-07-21T01:14:40.742Z,8.40
2018-07-21T01:17:09.425Z,8.10
2018-07-21T01:19:37.982Z,7.90
2018-07-21T01:22:06.467Z,8.27
2018-07-21T01:24:34.869Z,8.17
2018-07-21T01:27:03.309Z,7.77
2018-07-21T01:29:31.777Z,7.80
2018-07-21T01:32:00.168Z,8.73
2018-07-21T01:34:28.626Z,8.03
2018-07-21T01:36:57.042Z,8.30
2018-07-21T01:39:25.402Z,8.30
2018-07-21T01:41:53.775Z,8.40
2018-07-21T01:44:22.308Z,8.73
2018-07-21T01:46:51.388Z,8.83
2018-07-21T01:49:19.797Z,8.10
2018-07-21T01:51:47.960Z,8.23
2018-07-21T01:54:16.347Z,8.10
2018-07-21T01:56:44.853Z,8.40
2018-07-21T01:59:13.253Z,8.40
2018-07-21T02:01:41.657Z,8.80
2018-07-21T02:04:10.101Z,8.57
2018-07-21T02:06:38.530Z,8.40
2018-07-21T02:09:08.499Z,8.37
2018-07-21T02:11:36.899Z,8.30
2018-07-21T02:14:05.373Z,9.17
2018-07-21T02:16:33.777Z,8.40
2018-07-21T02:19:02.148Z,8.17
2018-07-21T02:21:30.728Z,8.27
2018-07-21T02:23:59.242Z,8.90
2018-07-21T02:26:27.633Z,8.40
2018-07-21T02:28:56.075Z,8.70
2018-07-21T02:31:24.463Z,8.87
2018-07-21T02:33:52.850Z,7.83
2018-07-21T02:36:21.272Z,8.70
2018-07-21T02:38:49.621Z,8.70
2018-07-21T02:41:18.220Z,8.60
2018-07-21T02:43:46.613Z,8.47
2018-07-21T02:46:15.069Z,8.50
2018-07-21T02:48:43.486Z,8.47
2018-07-21T02:51:11.913Z,9.07
2018-07-21T02:53:40.318Z,8.37
2018-07-21T02:56:08.949Z,8.97
2018-07-21T02:58:37.338Z,7.87
2018-07-21T03:01:05.778Z,8.63
2018-07-21T03:03:34.243Z,8.83
2018-07-21T03:06:02.626Z,8.50
2018-07-21T03:08:31.137Z,8.40
2018-07-21T03:10:59.602Z,8.50
2018-07-21T03:13:28.049Z,8.27
2018-07-21T03:15:56.402Z,8.43
2018-07-21T03:18:24.878Z,8.63
2018-07-21T03:20:53.463Z,8.47
2018-07-21T03:23:21.885Z,7.97
2018-07-21T03:25:50.256Z,8.53
2018-07-21T03:28:18.623Z,9.07
2018-07-21T03:30:46.998Z,8.60
2018-07-21T03:33:15.365Z,8.53
2018-07-21T03:35:43.773Z,8.47
2018-07-21T03:38:12.321Z,8.77
2018-07-21T03:40:40.678Z,8.90
2018-07-21T03:43:09.070Z,8.47
2018-07-21T03:45:37.420Z,8.77
2018-07-21T03:48:05.517Z,8.83
2018-07-21T03:50:33.966Z,8.77
2018-07-21T03:53:03.626Z,8.57
2018-07-21T03:55:32.030Z,8.80
2018-07-21T03:58:00.396Z,9.33
2018-07-21T04:00:28.795Z,8.97
2018-07-21T04:02:57.387Z,9.40
2018-07-21T04:05:25.720Z,8.97
2018-07-21T04:07:54.101Z,8.73
2018-07-21T04:10:22.540Z,9.23
2018-07-21T04:12:50.902Z,8.93
2018-07-21T04:15:19.306Z,8.73
2018-07-21T04:17:47.685Z,9.40
2018-07-21T04:20:16.030Z,9.17
2018-07-21T04:22:44.671Z,8.80
2018-07-21T04:25:13.033Z,9.30
2018-07-21T04:27:41.423Z,8.43
2018-07-21T04:30:09.829Z,8.17
2018-07-21T04:32:38.201Z,8.97
2018-07-21T04:35:06.660Z,9.53
2018-07-21T04:37:35.040Z,8.63
2018-07-21T04:40:03.590Z,9.10
2018-07-21T04:42:31.977Z,8.70
2018-07-21T04:45:00.366Z,9.30
2018-07-21T04:47:28.719Z,8.77
2018-07-21T04:49:57.166Z,9.03
2018-07-21T04:52:25.542Z,8.87
2018-07-21T04:54:53.970Z,8.60
2018-07-21T04:57:22.354Z,9.03
2018-07-21T04:59:50.737Z,8.67
2018-07-21T05:02:19.123Z,8.37
2018-07-21T05:04:47.505Z,9.40
2018-07-21T05:07:15.922Z,8.70
2018-07-21T05:09:44.349Z,8.80
2018-07-21T05:12:12.726Z,8.60
2018-07-21T05:14:41.150Z,8.67
2018-07-21T05:17:09.498Z,8.00
2018-07-21T05:19:37.857Z,8.57
2018-07-21T05:22:06.545Z,8.27
2018-07-21T05:24:34.926Z,9.03
2018-07-21T05:27:03.304Z,8.17
2018-07-21T05:29:31.725Z,8.37
2018-07-21T05:32:00.131Z,8.77
2018-07-21T05:34:28.513Z,8.67
2018-07-21T05:36:56.884Z,8.43
2018-07-21T05:39:25.304Z,8.80
2018-07-21T05:41:53.661Z,8.43
2018-07-21T05:44:22.059Z,8.27
2018-07-21T05:46:50.457Z,8.60
2018-07-21T05:49:18.839Z,8.13
2018-07-21T05:51:46.976Z,8.73
2018-07-21T05:54:15.350Z,8.37
2018-07-21T05:56:43.736Z,8.37
2018-07-21T05:59:12.195Z,8.33
2018-07-21T06:01:40.568Z,8.33
2018-07-21T06:04:09.285Z,7.73
2018-07-21T06:06:37.679Z,8.00
2018-07-21T06:09:07.943Z,7.70
2018-07-21T06:11:36.409Z,7.90
2018-07-21T06:14:04.847Z,8.23
2018-07-21T06:16:33.266Z,7.97
2018-07-21T06:19:01.649Z,8.17
2018-07-21T06:21:30.294Z,7.95
2018-07-21T06:23:58.837Z,7.90
2018-07-21T06:26:27.217Z,7.92
2018-07-21T06:28:55.601Z,8.30
2018-07-21T06:31:23.989Z,7.50
2018-07-21T06:33:52.491Z,7.35
2018-07-21T06:36:21.141Z,6.90
2018-07-21T06:38:49.525Z,7.10
2018-07-21T06:41:17.908Z,7.25
2018-07-21T06:43:46.340Z,7.50
2018-07-21T06:46:14.742Z,7.03
2018-07-21T06:48:43.113Z,7.30
2018-07-21T06:51:11.622Z,7.20
2018-07-21T06:53:39.978Z,7.03
2018-07-21T06:56:08.366Z,7.30
2018-07-21T06:58:36.725Z,7.10
2018-07-21T07:01:05.268Z,6.70
2018-07-21T07:03:33.820Z,6.50
2018-07-21T07:06:02.193Z,6.72
2018-07-21T07:08:30.588Z,6.53
2018-07-21T07:10:58.958Z,6.42
2018-07-21T07:13:27.307Z,6.50
2018-07-21T07:15:55.690Z,5.85
2018-07-21T07:18:24.057Z,6.30
2018-07-21T07:20:52.460Z,6.62
2018-07-21T07:23:20.865Z,6.85
2018-07-21T07:25:49.318Z,6.33
2018-07-21T07:28:17.446Z,6.50
2018-07-21T07:30:45.853Z,6.42
2018-07-21T07:33:14.264Z,6.13
2018-07-21T07:35:42.645Z,6.35
2018-07-21T07:38:11.004Z,6.20
2018-07-21T07:40:39.376Z,6.67
2018-07-21T07:43:08.306Z,6.27
2018-07-21T07:45:36.934Z,5.95
2018-07-21T07:48:05.346Z,6.20
2018-07-21T07:50:33.786Z,6.17
2018-07-21T07:53:02.174Z,6.30
2018-07-21T07:55:32.762Z,6.28
2018-07-21T07:58:04.154Z,6.70
2018-07-21T08:00:32.702Z,6.15
2018-07-21T08:03:02.191Z,5.90
2018-07-21T08:15:01.920Z,6.12
2018-07-21T08:17:30.438Z,5.85
2018-07-21T08:19:58.794Z,5.95
2018-07-21T08:22:27.230Z,6.10
2018-07-21T08:24:55.697Z,6.47
2018-07-21T08:27:24.099Z,5.90
2018-07-21T08:29:52.541Z,5.97
2018-07-21T08:32:20.934Z,6.25
2018-07-21T08:34:49.347Z,6.05
2018-07-21T08:37:17.707Z,5.50
2018-07-21T08:39:46.090Z,6.28
2018-07-21T08:42:14.506Z,6.20
2018-07-21T08:44:42.964Z,6.08
2018-07-21T08:47:11.634Z,6.62
2018-07-21T08:49:40.235Z,5.55
2018-07-21T08:52:08.690Z,5.90
2018-07-21T08:54:37.554Z,5.90
2018-07-21T08:57:06.058Z,5.87
2018-07-21T08:59:34.424Z,5.30
2018-07-21T09:02:03.000Z,5.70
2018-07-21T09:04:32.361Z,5.60
2018-07-21T09:07:01.418Z,5.80
2018-07-21T09:09:29.760Z,5.60
2018-07-21T09:11:58.141Z,5.55
2018-07-21T09:14:26.575Z,5.87
2018-07-21T09:16:54.959Z,5.95
2018-07-21T09:19:23.401Z,5.80
2018-07-21T09:21:51.806Z,5.40
2018-07-21T09:24:20.191Z,6.40
2018-07-21T09:26:48.793Z,5.67
2018-07-21T09:29:17.259Z,5.62
2018-07-21T09:31:45.647Z,5.97
2018-07-21T09:34:14.129Z,6.58
2018-07-21T09:36:42.577Z,5.95
2018-07-21T09:39:11.717Z,6.53
2018-07-21T09:41:40.278Z,6.22
2018-07-21T09:44:08.689Z,5.92
2018-07-21T09:46:37.073Z,6.20
2018-07-21T09:49:05.521Z,6.03
2018-07-21T09:51:33.982Z,6.03
2018-07-21T09:54:02.353Z,5.85
2018-07-21T09:56:30.717Z,6.08
2018-07-21T09:58:59.098Z,6.30
2018-07-21T10:01:27.480Z,5.72
2018-07-21T10:03:55.836Z,6.05
2018-07-21T10:06:24.193Z,6.00
2018-07-21T10:08:52.551Z,6.33
2018-07-21T10:11:20.949Z,6.08
2018-07-21T10:13:49.303Z,6.65
2018-07-21T10:16:17.753Z,6.08
2018-07-21T10:18:45.896Z,6.42
2018-07-21T10:21:14.271Z,6.35
2018-07-21T10:23:42.630Z,5.83
2018-07-21T10:26:16.442Z,6.17
2018-07-21T10:28:50.269Z,6.35
2018-07-21T10:31:18.919Z,5.97
2018-07-21T10:33:47.266Z,6.08
2018-07-21T10:36:15.662Z,6.58
2018-07-21T10:38:44.042Z,6.40
2018-07-21T10:41:12.397Z,5.70
2018-07-21T10:43:40.803Z,6.25
2018-07-21T10:46:09.150Z,5.92
2018-07-21T10:48:37.514Z,6.40
2018-07-21T10:51:05.928Z,6.30
2018-07-21T10:53:34.305Z,6.07
2018-07-21T10:56:02.641Z,5.62
2018-07-21T10:58:31.020Z,6.05
2018-07-21T11:00:59.389Z,6.10
2018-07-21T11:03:27.757Z,6.30
2018-07-21T11:05:56.130Z,6.20
2018-07-21T11:08:24.587Z,6.33
2018-07-21T11:10:52.970Z,6.53
2018-07-21T11:13:21.341Z,6.50
2018-07-21T11:15:49.733Z,6.12
2018-07-21T11:18:18.107Z,6.75
2018-07-21T11:20:46.457Z,6.62
2018-07-21T11:23:14.858Z,5.87
2018-07-21T11:25:43.226Z,6.15
2018-07-21T11:28:11.602Z,6.00
2018-07-21T11:30:39.977Z,6.40
2018-07-21T11:33:08.325Z,6.60
2018-07-21T11:35:36.865Z,5.97
2018-07-21T11:38:05.134Z,6.35
2018-07-21T11:40:33.481Z,6.37
2018-07-21T11:43:01.870Z,6.17
2018-07-21T11:45:30.205Z,6.55
2018-07-21T11:47:58.558Z,5.97
2018-07-21T11:50:26.934Z,6.40
2018-07-21T11:52:55.286Z,6.40
2018-07-21T11:55:23.728Z,5.90
2018-07-21T11:57:52.110Z,6.20
2018-07-21T12:00:20.467Z,5.95
2018-07-21T12:02:48.881Z,5.83
2018-07-21T12:05:17.320Z,7.10
2018-07-21T12:07:45.706Z,6.25
2018-07-21T12:10:14.084Z,6.42
2018-07-21T12:12:42.426Z,6.40
2018-07-21T12:15:10.835Z,6.42
2018-07-21T12:17:39.224Z,6.45
2018-07-21T12:20:07.618Z,5.92
2018-07-21T12:22:35.959Z,6.22
2018-07-21T12:25:04.457Z,6.87
2018-07-21T12:27:32.829Z,6.03
2018-07-21T12:30:01.350Z,6.72
2018-07-21T12:32:29.745Z,6.55
2018-07-21T12:34:58.158Z,6.08
2018-07-21T12:37:26.253Z,5.70
2018-07-21T12:39:54.648Z,6.22
2018-07-21T12:42:23.039Z,6.75
2018-07-21T12:44:51.474Z,6.50
2018-07-21T12:47:19.870Z,6.90
2018-07-21T12:49:48.201Z,6.42
2018-07-21T12:52:16.561Z,6.28
2018-07-21T12:54:44.957Z,6.10
2018-07-21T12:57:13.304Z,6.47
2018-07-21T12:59:41.690Z,6.20
2018-07-21T13:02:10.082Z,6.33
2018-07-21T13:04:38.489Z,5.83
2018-07-21T13:07:06.860Z,6.28
2018-07-21T13:09:35.240Z,8.83
2018-07-21T13:12:03.662Z,6.00
2018-07-21T13:14:32.030Z,5.72
2018-07-21T13:17:00.407Z,6.00
2018-07-21T13:19:28.760Z,6.35
2018-07-21T13:21:57.110Z,5.90
2018-07-21T13:24:25.515Z,6.72
2018-07-21T13:26:53.893Z,6.08
2018-07-21T13:29:22.345Z,6.25
2018-07-21T13:31:50.746Z,5.83
2018-07-21T13:34:19.121Z,6.17
2018-07-21T13:36:47.658Z,6.40
2018-07-21T13:39:16.059Z,6.25
2018-07-21T13:41:44.414Z,6.37
2018-07-21T13:44:12.811Z,6.25
2018-07-21T13:46:41.182Z,6.47
2018-07-21T13:49:09.565Z,6.22
2018-07-21T13:51:37.977Z,6.80
2018-07-21T13:54:06.350Z,6.62
2018-07-21T13:56:34.745Z,6.25
2018-07-21T13:59:03.127Z,6.15
2018-07-21T14:01:31.482Z,5.97
2018-07-21T14:03:59.882Z,6.22
2018-07-21T14:06:28.226Z,6.90
2018-07-21T14:08:56.608Z,6.40
2018-07-21T14:11:25.009Z,6.37
2018-07-21T14:13:53.421Z,6.30
2018-07-21T14:16:21.798Z,6.58
2018-07-21T14:18:50.194Z,6.73
2018-07-21T14:21:18.590Z,6.95
2018-07-21T14:23:46.986Z,6.70
2018-07-21T14:26:15.414Z,6.35
2018-07-21T14:28:43.795Z,6.60
2018-07-21T14:31:12.262Z,5.92
2018-07-21T14:33:40.628Z,6.40
2018-07-21T14:36:09.056Z,6.90
2018-07-21T14:38:37.132Z,6.60
2018-07-21T14:41:05.601Z,6.65
2018-07-21T14:43:33.733Z,6.10
2018-07-21T14:46:02.104Z,6.65
2018-07-21T14:48:30.465Z,6.83
2018-07-21T14:50:58.873Z,6.67
2018-07-21T14:53:27.209Z,6.15
2018-07-21T14:55:55.606Z,6.00
2018-07-21T14:58:23.953Z,6.53
2018-07-21T15:00:52.406Z,6.47
2018-07-21T15:03:20.786Z,6.00
2018-07-21T15:05:49.154Z,5.70
2018-07-21T15:08:17.622Z,5.55
2018-07-21T15:10:46.014Z,5.75
2018-07-21T15:13:14.389Z,5.87
2018-07-21T15:15:42.769Z,5.70
2018-07-21T15:18:11.170Z,5.80
2018-07-21T15:20:39.560Z,5.70
2018-07-21T15:23:07.982Z,5.87
2018-07-21T15:25:36.372Z,5.85
2018-07-21T15:28:04.763Z,5.62
2018-07-21T15:30:33.141Z,5.75
2018-07-21T15:33:01.690Z,5.67
2018-07-21T15:35:30.059Z,5.72
2018-07-21T15:37:58.548Z,5.97
2018-07-21T15:40:27.051Z,5.83
2018-07-21T15:42:55.452Z,5.22
2018-07-21T15:45:23.823Z,5.50
2018-07-21T15:47:52.273Z,6.12
2018-07-21T15:50:20.608Z,5.55
2018-07-21T15:52:49.062Z,5.67
2018-07-21T15:55:18.446Z,6.03
2018-07-21T15:57:46.825Z,5.62
2018-07-21T16:00:15.228Z,5.35
2018-07-21T16:02:43.648Z,5.62
2018-07-21T16:05:12.469Z,5.25
2018-07-21T16:07:40.997Z,5.28
2018-07-21T16:10:11.176Z,4.70
2018-07-21T16:12:39.869Z,5.47
2018-07-21T16:15:08.636Z,4.90
2018-07-21T16:17:37.195Z,5.08
2018-07-21T16:20:05.855Z,5.33
2018-07-21T16:22:34.581Z,5.10
2018-07-21T16:25:02.942Z,5.50
2018-07-21T16:27:31.298Z,5.22
2018-07-21T16:29:59.670Z,5.28
2018-07-21T16:32:28.075Z,5.55
2018-07-21T16:34:56.505Z,5.62
2018-07-21T16:37:24.851Z,10.35
2018-07-21T16:39:53.270Z,5.50
2018-07-21T16:42:21.647Z,5.67
2018-07-21T16:44:49.991Z,5.60
2018-07-21T16:47:18.428Z,5.10
2018-07-21T16:49:46.893Z,4.85
2018-07-21T16:52:15.241Z,5.42
2018-07-21T16:54:44.145Z,5.50
2018-07-21T16:57:12.529Z,5.12
2018-07-21T16:59:40.917Z,5.80
2018-07-21T17:02:09.310Z,6.62
2018-07-21T17:04:37.814Z,5.67
2018-07-21T17:07:06.186Z,5.45
2018-07-21T17:09:34.590Z,5.55
2018-07-21T17:12:03.030Z,5.22
2018-07-21T17:14:31.440Z,5.47
2018-07-21T17:16:59.865Z,5.55
2018-07-21T17:19:28.242Z,5.20
2018-07-21T17:21:56.712Z,5.62
2018-07-21T17:24:25.110Z,5.65
2018-07-21T17:26:53.920Z,5.50
2018-07-21T17:29:22.506Z,5.55
2018-07-21T17:31:50.817Z,5.42
2018-07-21T17:34:19.011Z,5.30
2018-07-21T17:36:47.397Z,5.42
2018-07-21T17:39:15.824Z,4.87
2018-07-21T17:41:44.182Z,5.47
2018-07-21T17:44:12.565Z,5.25
2018-07-21T17:46:41.077Z,5.45
2018-07-21T17:49:09.480Z,4.80
2018-07-21T17:51:37.903Z,5.12
2018-07-21T17:54:06.294Z,5.60
2018-07-21T17:56:34.670Z,4.97
2018-07-21T17:59:03.041Z,5.23
2018-07-21T18:01:31.426Z,5.80
2018-07-21T18:03:59.794Z,5.20
2018-07-21T18:06:28.274Z,5.47
2018-07-21T18:08:56.738Z,5.27
2018-07-21T18:11:25.174Z,5.28
2018-07-21T18:13:53.550Z,4.90
2018-07-21T18:16:21.953Z,5.58
2018-07-21T18:25:01.978Z,5.17
2018-07-21T18:27:30.346Z,5.45
2018-07-21T18:29:58.765Z,5.45
2018-07-21T18:32:27.374Z,6.05
2018-07-21T18:34:55.749Z,5.90
2018-07-21T18:37:24.153Z,5.37
2018-07-21T18:39:52.649Z,5.22
2018-07-21T18:42:21.083Z,5.35
2018-07-21T18:44:49.585Z,5.75
2018-07-21T18:47:18.010Z,6.00
2018-07-21T18:49:46.382Z,5.47
2018-07-21T18:52:14.779Z,6.08
2018-07-21T18:54:43.337Z,5.75
2018-07-21T18:57:11.881Z,5.35
2018-07-21T18:59:40.307Z,5.85
2018-07-21T19:02:08.684Z,6.60
2018-07-21T19:04:37.736Z,6.15
2018-07-21T19:07:06.091Z,5.97
2018-07-21T19:09:34.461Z,6.33
2018-07-21T19:12:08.324Z,6.55
2018-07-21T19:14:36.777Z,6.83
2018-07-21T19:17:05.160Z,6.10
2018-07-21T19:19:38.974Z,6.22
2018-07-21T19:22:07.370Z,6.97
2018-07-21T19:24:35.801Z,6.37
2018-07-21T19:27:09.635Z,6.70
2018-07-21T19:29:38.038Z,6.62
2018-07-21T19:32:11.820Z,6.75
2018-07-21T19:34:40.280Z,6.55
2018-07-21T19:37:14.110Z,7.40
2018-07-21T19:39:42.703Z,7.08
2018-07-21T19:42:11.147Z,7.12
2018-07-21T19:44:39.518Z,7.45
2018-07-21T19:47:07.941Z,6.90
2018-07-21T19:49:36.937Z,7.40
2018-07-21T19:52:05.385Z,7.25
2018-07-21T19:54:33.922Z,6.47
2018-07-21T19:57:02.330Z,6.15
2018-07-21T19:59:30.683Z,6.33
2018-07-21T20:01:59.094Z,6.62
2018-07-21T20:04:27.594Z,6.58
2018-07-21T20:06:56.240Z,6.35
2018-07-21T20:09:24.684Z,6.87
2018-07-21T20:11:53.086Z,6.92
2018-07-21T20:14:21.490Z,7.10
2018-07-21T20:16:49.897Z,6.95
2018-07-21T20:19:18.301Z,6.17
2018-07-21T20:21:46.650Z,6.42
2018-07-21T20:24:15.208Z,6.03
2018-07-21T20:26:43.594Z,6.03
2018-07-21T20:29:11.964Z,6.40
2018-07-21T20:31:40.316Z,6.70
2018-07-21T20:34:08.817Z,6.43
2018-07-21T20:36:37.185Z,6.37
2018-07-21T20:39:06.631Z,6.17
2018-07-21T20:41:35.035Z,6.67
2018-07-21T20:44:03.480Z,6.40
2018-07-21T20:46:31.893Z,6.70
2018-07-21T20:49:00.297Z,6.92
2018-07-21T20:51:28.671Z,6.50
2018-07-21T20:53:57.073Z,6.45
2018-07-21T20:56:25.450Z,6.87
2018-07-21T20:58:53.910Z,6.97
2018-07-21T21:01:22.301Z,7.25
2018-07-21T21:03:50.429Z,6.80
2018-07-21T21:06:18.858Z,6.92
2018-07-21T21:08:47.241Z,7.12
2018-07-21T21:11:15.585Z,6.22
2018-07-21T21:13:43.986Z,6.92
2018-07-21T21:16:12.366Z,6.40
2018-07-21T21:18:40.751Z,6.65
2018-07-21T21:21:09.175Z,6.05
2018-07-21T21:23:37.577Z,7.05
2018-07-21T21:26:05.958Z,7.15
2018-07-21T21:28:34.450Z,6.15
2018-07-21T21:31:02.877Z,5.87
2018-07-21T21:33:31.265Z,6.40
2018-07-21T21:35:59.650Z,7.20
2018-07-21T21:38:28.017Z,6.78
2018-07-21T21:40:56.382Z,6.90
2018-07-21T21:43:24.918Z,8.03
2018-07-21T21:45:53.426Z,8.13
2018-07-21T21:48:21.943Z,9.08
2018-07-21T21:50:50.349Z,9.27
2018-07-21T21:53:18.708Z,8.83
2018-07-21T21:55:47.115Z,8.80
2018-07-21T21:58:15.478Z,9.20
2018-07-21T22:00:59.619Z,8.70
2018-07-21T22:03:29.786Z,8.67
2018-07-21T22:05:58.853Z,9.18
2018-07-21T22:08:27.306Z,8.27
2018-07-21T22:10:55.690Z,8.18
2018-07-21T22:13:24.230Z,8.08
2018-07-21T22:15:52.647Z,8.20
2018-07-21T22:18:21.232Z,8.33
2018-07-21T22:20:49.697Z,8.53
2018-07-21T22:23:18.111Z,7.97
2018-07-21T22:25:46.589Z,8.28
2018-07-21T22:28:15.001Z,8.63
2018-07-21T22:30:43.359Z,8.13
2018-07-21T22:33:11.941Z,11.10
2018-07-21T22:35:40.539Z,14.25
2018-07-21T22:38:08.929Z,9.10
2018-07-21T22:40:37.300Z,8.03
2018-07-21T22:43:05.776Z,7.80
2018-07-21T22:45:34.197Z,8.27
2018-07-21T22:48:02.606Z,7.93
2018-07-21T22:50:30.992Z,8.03
2018-07-21T22:52:59.357Z,7.80
2018-07-21T22:55:27.812Z,8.23
2018-07-21T22:57:56.184Z,8.80
2018-07-21T23:00:24.575Z,7.85
2018-07-21T23:02:53.026Z,8.20
2018-07-21T23:05:21.433Z,8.57
2018-07-21T23:07:49.781Z,7.90
2018-07-21T23:10:18.253Z,8.50
2018-07-21T23:12:46.678Z,8.80
2018-07-21T23:15:15.157Z,7.67
2018-07-21T23:17:43.289Z,7.97
2018-07-21T23:20:11.691Z,8.70
2018-07-21T23:22:40.091Z,8.57
2018-07-21T23:25:08.443Z,8.63
2018-07-21T23:27:36.822Z,8.43
2018-07-21T23:30:05.388Z,8.30
2018-07-21T23:32:33.875Z,8.27
2018-07-21T23:35:02.250Z,9.05
2018-07-21T23:37:31.070Z,8.47
2018-07-21T23:39:59.486Z,8.18
2018-07-21T23:42:27.930Z,8.77
2018-07-21T23:44:56.313Z,8.33
2018-07-21T23:47:24.687Z,8.00
2018-07-21T23:49:53.126Z,8.13
2018-07-21T23:52:21.493Z,9.07
2018-07-21T23:54:49.867Z,8.97
2018-07-21T23:57:18.277Z,8.57
2018-07-21T23:59:46.639Z,8.00
